Terminal Aerodrome Forecast
Issued by NWS Indianapolis, IN

Home | Current Version | Previous Version | Text Only | Print | Product List | Glossary On
Versions: 1 2 3 4 5 6 7 8 9 10 11 12 13 14 15 16 17 18 19 20 21 22 23 24 25 26 27
244
FTUS43 KIND 221100
TAFIND
TAF
KIND 221125Z 2212/2318 23006KT P6SM FEW100
     FM221600 31008KT P6SM SCT050
     FM230300 05006KT P6SM BKN250
     FM231500 14007KT P6SM BKN150=

USA.gov is the U.S. government's official web portal to all federal, state and local government web resources and services.